sensor_id;sensor_type;location;lat;lon;timestamp;pressure;altitude;pressure_sealevel;temperature;humidity
9415;BME280;4746;35.664;139.738;2024-03-07T00:01:41;100285.78;;;14.50;32.83
9415;BME280;4746;35.664;139.738;2024-03-07T00:04:12;100284.84;;;14.62;32.63
9415;BME280;4746;35.664;139.738;2024-03-07T00:06:40;100289.09;;;14.68;32.63
9415;BME280;4746;35.664;139.738;2024-03-07T00:09:08;100284.78;;;14.68;32.71
9415;BME280;4746;35.664;139.738;2024-03-07T00:11:36;100289.06;;;14.72;33.50
9415;BME280;4746;35.664;139.738;2024-03-07T00:14:05;100292.63;;;14.59;32.24
9415;BME280;4746;35.664;139.738;2024-03-07T00:16:33;100294.38;;;14.55;32.51
9415;BME280;4746;35.664;139.738;2024-03-07T00:19:01;100292.66;;;14.51;32.51
9415;BME280;4746;35.664;139.738;2024-03-07T00:21:29;100298.69;;;14.51;32.31
9415;BME280;4746;35.664;139.738;2024-03-07T00:23:57;100302.97;;;14.51;32.43
9415;BME280;4746;35.664;139.738;2024-03-07T00:26:26;100289.22;;;14.52;32.18
9415;BME280;4746;35.664;139.738;2024-03-07T00:29:18;100295.28;;;14.48;32.01
9415;BME280;4746;35.664;139.738;2024-03-07T00:31:47;100289.28;;;14.46;32.77
9415;BME280;4746;35.664;139.738;2024-03-07T00:34:16;100279.84;;;14.46;32.36
9415;BME280;4746;35.664;139.738;2024-03-07T00:36:46;100284.16;;;14.43;32.08
9415;BME280;4746;35.664;139.738;2024-03-07T00:39:14;100280.69;;;14.44;31.96
9415;BME280;4746;35.664;139.738;2024-03-07T00:41:42;100282.41;;;14.48;31.64
9415;BME280;4746;35.664;139.738;2024-03-07T00:44:09;100282.38;;;14.49;31.67
9415;BME280;4746;35.664;139.738;2024-03-07T00:46:37;100287.56;;;14.48;31.40
9415;BME280;4746;35.664;139.738;2024-03-07T00:49:05;100279.84;;;14.42;31.29
9415;BME280;4746;35.664;139.738;2024-03-07T00:51:33;100272.94;;;14.44;31.15
9415;BME280;4746;35.664;139.738;2024-03-07T00:54:00;100269.50;;;14.45;30.97
9415;BME280;4746;35.664;139.738;2024-03-07T00:56:28;100274.72;;;14.42;31.36
9415;BME280;4746;35.664;139.738;2024-03-07T00:58:55;100276.44;;;14.38;31.08
9415;BME280;4746;35.664;139.738;2024-03-07T01:01:23;100277.31;;;14.36;31.13
9415;BME280;4746;35.664;139.738;2024-03-07T01:03:51;100279.91;;;14.34;31.25
9415;BME280;4746;35.664;139.738;2024-03-07T01:06:18;100276.50;;;14.32;31.28
9415;BME280;4746;35.664;139.738;2024-03-07T01:08:48;100270.47;;;14.32;31.68
9415;BME280;4746;35.664;139.738;2024-03-07T01:11:15;100279.09;;;14.28;31.56
9415;BME280;4746;35.664;139.738;2024-03-07T01:13:43;100283.41;;;14.27;31.57
9415;BME280;4746;35.664;139.738;2024-03-07T01:16:11;100279.09;;;14.31;31.91
9415;BME280;4746;35.664;139.738;2024-03-07T01:18:39;100274.72;;;14.40;31.63
9415;BME280;4746;35.664;139.738;2024-03-07T01:21:07;100278.97;;;14.46;31.65
9415;BME280;4746;35.664;139.738;2024-03-07T01:23:35;100287.50;;;14.51;31.72
9415;BME280;4746;35.664;139.738;2024-03-07T01:26:04;100287.56;;;14.45;31.62
9415;BME280;4746;35.664;139.738;2024-03-07T01:28:32;100293.44;;;14.61;31.67
9415;BME280;4746;35.664;139.738;2024-03-07T01:30:59;100281.31;;;14.71;31.58
9415;BME280;4746;35.664;139.738;2024-03-07T01:33:27;100295.88;;;14.79;31.10
9415;BME280;4746;35.664;139.738;2024-03-07T01:35:55;100280.44;;;14.76;31.04
9415;BME280;4746;35.664;139.738;2024-03-07T01:38:22;100285.63;;;14.70;30.79
9415;BME280;4746;35.664;139.738;2024-03-07T01:40:50;100289.91;;;14.70;30.37
9415;BME280;4746;35.664;139.738;2024-03-07T01:43:17;100290.81;;;14.67;30.48
9415;BME280;4746;35.664;139.738;2024-03-07T01:45:46;100290.84;;;14.64;30.74
9415;BME280;4746;35.664;139.738;2024-03-07T01:48:25;100290.84;;;14.64;30.38
9415;BME280;4746;35.664;139.738;2024-03-07T01:50:53;100292.66;;;14.54;30.51
9415;BME280;4746;35.664;139.738;2024-03-07T01:53:23;100292.72;;;14.48;30.73
9415;BME280;4746;35.664;139.738;2024-03-07T01:55:52;100286.72;;;14.41;30.53
9415;BME280;4746;35.664;139.738;2024-03-07T01:58:24;100285.84;;;14.42;30.33
9415;BME280;4746;35.664;139.738;2024-03-07T02:00:52;100290.13;;;14.45;30.34
9415;BME280;4746;35.664;139.738;2024-03-07T02:03:20;100289.28;;;14.44;30.33
9415;BME280;4746;35.664;139.738;2024-03-07T02:05:48;100284.06;;;14.55;30.51
9415;BME280;4746;35.664;139.738;2024-03-07T02:08:15;100285.63;;;14.70;30.59
9415;BME280;4746;35.664;139.738;2024-03-07T02:10:43;100270.06;;;14.82;30.64
9415;BME280;4746;35.664;139.738;2024-03-07T02:13:11;100279.25;;;15.09;30.24
9415;BME280;4746;35.664;139.738;2024-03-07T02:15:39;100279.94;;;15.27;29.93
9415;BME280;4746;35.664;139.738;2024-03-07T02:18:10;100272.84;;;15.44;29.63
9415;BME280;4746;35.664;139.738;2024-03-07T02:20:41;100272.72;;;15.56;29.65
9415;BME280;4746;35.664;139.738;2024-03-07T02:23:09;100265.59;;;15.73;29.47
9415;BME280;4746;35.664;139.738;2024-03-07T02:25:37;100257.78;;;15.79;29.12
9415;BME280;4746;35.664;139.738;2024-03-07T02:28:06;100252.50;;;15.88;29.43
9415;BME280;4746;35.664;139.738;2024-03-07T02:30:33;100243.72;;;15.99;29.38
9415;BME280;4746;35.664;139.738;2024-03-07T02:33:01;100255.56;;;16.13;29.06
9415;BME280;4746;35.664;139.738;2024-03-07T02:35:35;100244.16;;;16.29;29.21
9415;BME280;4746;35.664;139.738;2024-03-07T02:38:04;100237.72;;;16.53;28.86
9415;BME280;4746;35.664;139.738;2024-03-07T02:40:32;100241.75;;;16.70;28.22
9415;BME280;4746;35.664;139.738;2024-03-07T02:43:00;100230.28;;;16.83;27.90
9415;BME280;4746;35.664;139.738;2024-03-07T02:45:30;100224.13;;;16.90;27.67
9415;BME280;4746;35.664;139.738;2024-03-07T02:47:58;100217.09;;;16.98;27.68
9415;BME280;4746;35.664;139.738;2024-03-07T02:50:26;100207.44;;;17.04;27.91
9415;BME280;4746;35.664;139.738;2024-03-07T02:52:53;100206.56;;;17.05;27.68
9415;BME280;4746;35.664;139.738;2024-03-07T02:55:21;100206.22;;;17.26;27.21
9415;BME280;4746;35.664;139.738;2024-03-07T02:57:48;100201.66;;;17.36;27.48
9415;BME280;4746;35.664;139.738;2024-03-07T03:00:16;100210.78;;;17.54;27.09
9415;BME280;4746;35.664;139.738;2024-03-07T03:02:49;100204.28;;;17.75;27.20
9415;BME280;4746;35.664;139.738;2024-03-07T03:05:17;100200.53;;;17.88;27.06
9415;BME280;4746;35.664;139.738;2024-03-07T03:07:45;100199.47;;;17.96;26.80
9415;BME280;4746;35.664;139.738;2024-03-07T03:10:28;100178.66;;;17.99;26.66
9415;BME280;4746;35.664;139.738;2024-03-07T03:13:00;100176.97;;;17.98;26.32
9415;BME280;4746;35.664;139.738;2024-03-07T03:15:28;100176.88;;;18.01;26.42
9415;BME280;4746;35.664;139.738;2024-03-07T03:17:56;100169.38;;;17.91;26.15
9415;BME280;4746;35.664;139.738;2024-03-07T03:20:26;100162.72;;;17.79;26.35
9415;BME280;4746;35.664;139.738;2024-03-07T03:23:06;100148.78;;;17.85;26.55
9415;BME280;4746;35.664;139.738;2024-03-07T03:25:38;100143.16;;;18.03;26.41
9415;BME280;4746;35.664;139.738;2024-03-07T03:28:09;100138.16;;;18.30;26.04
9415;BME280;4746;35.664;139.738;2024-03-07T03:30:38;100147.59;;;18.32;26.24
9415;BME280;4746;35.664;139.738;2024-03-07T03:33:07;100147.44;;;18.40;26.06
9415;BME280;4746;35.664;139.738;2024-03-07T03:35:39;100153.22;;;18.49;25.92
9415;BME280;4746;35.664;139.738;2024-03-07T03:38:09;100143.81;;;18.45;26.17
9415;BME280;4746;35.664;139.738;2024-03-07T03:40:37;100154.91;;;18.52;25.64
9415;BME280;4746;35.664;139.738;2024-03-07T03:43:05;100146.03;;;18.59;25.81
9415;BME280;4746;35.664;139.738;2024-03-07T03:45:33;100142.69;;;18.55;25.84
9415;BME280;4746;35.664;139.738;2024-03-07T03:48:01;100129.63;;;18.58;25.50
9415;BME280;4746;35.664;139.738;2024-03-07T03:50:29;100117.31;;;18.65;25.82
9415;BME280;4746;35.664;139.738;2024-03-07T03:52:56;100111.00;;;18.75;25.34
9415;BME280;4746;35.664;139.738;2024-03-07T03:55:24;100105.31;;;18.92;25.14
9415;BME280;4746;35.664;139.738;2024-03-07T03:57:55;100099.44;;;19.16;24.64
9415;BME280;4746;35.664;139.738;2024-03-07T04:00:23;100100.50;;;19.38;24.53
9415;BME280;4746;35.664;139.738;2024-03-07T04:02:51;100100.03;;;19.53;24.40
9415;BME280;4746;35.664;139.738;2024-03-07T04:05:20;100100.91;;;19.52;24.43
9415;BME280;4746;35.664;139.738;2024-03-07T04:07:48;100097.28;;;19.57;24.39
9415;BME280;4746;35.664;139.738;2024-03-07T04:10:17;100095.34;;;19.64;24.17
9415;BME280;4746;35.664;139.738;2024-03-07T04:12:45;100092.97;;;19.84;24.06
9415;BME280;4746;35.664;139.738;2024-03-07T04:15:15;100101.22;;;19.98;23.96
9415;BME280;4746;35.664;139.738;2024-03-07T04:17:46;100099.09;;;20.09;23.62
9415;BME280;4746;35.664;139.738;2024-03-07T04:20:13;100090.91;;;20.21;23.51
9415;BME280;4746;35.664;139.738;2024-03-07T04:22:43;100098.09;;;20.37;23.38
9415;BME280;4746;35.664;139.738;2024-03-07T04:25:11;100106.50;;;20.45;23.41
9415;BME280;4746;35.664;139.738;2024-03-07T04:27:39;100103.44;;;20.58;23.23
9415;BME280;4746;35.664;139.738;2024-03-07T04:30:08;100106.31;;;20.75;23.15
9415;BME280;4746;35.664;139.738;2024-03-07T04:32:40;100082.34;;;20.90;22.96
9415;BME280;4746;35.664;139.738;2024-03-07T04:35:09;100080.41;;;21.18;22.45
9415;BME280;4746;35.664;139.738;2024-03-07T04:37:38;100067.97;;;21.47;22.23
9415;BME280;4746;35.664;139.738;2024-03-07T04:40:09;100069.97;;;21.83;22.52
9415;BME280;4746;35.664;139.738;2024-03-07T04:42:48;100059.38;;;22.08;21.72
9415;BME280;4746;35.664;139.738;2024-03-07T04:45:19;100060.56;;;22.21;21.60
9415;BME280;4746;35.664;139.738;2024-03-07T04:47:50;100058.22;;;22.54;21.34
9415;BME280;4746;35.664;139.738;2024-03-07T04:50:18;100055.34;;;23.35;21.14
9415;BME280;4746;35.664;139.738;2024-03-07T04:52:45;100057.38;;;24.01;20.15
9415;BME280;4746;35.664;139.738;2024-03-07T04:55:13;100065.22;;;24.52;19.72
9415;BME280;4746;35.664;139.738;2024-03-07T04:57:41;100065.00;;;24.88;19.80
9415;BME280;4746;35.664;139.738;2024-03-07T05:00:13;100060.63;;;25.04;19.61
9415;BME280;4746;35.664;139.738;2024-03-07T05:02:47;100066.66;;;25.22;19.51
9415;BME280;4746;35.664;139.738;2024-03-07T05:05:16;100075.53;;;26.25;18.60
9415;BME280;4746;35.664;139.738;2024-03-07T05:07:55;100063.19;;;27.52;17.92
9415;BME280;4746;35.664;139.738;2024-03-07T05:10:22;100056.75;;;29.58;16.32
9415;BME280;4746;35.664;139.738;2024-03-07T05:12:50;100053.50;;;31.13;15.49
9415;BME280;4746;35.664;139.738;2024-03-07T05:15:18;100046.88;;;32.14;14.44
9415;BME280;4746;35.664;139.738;2024-03-07T05:17:46;100040.22;;;32.81;14.01
9415;BME280;4746;35.664;139.738;2024-03-07T05:20:13;100054.31;;;33.50;13.90
9415;BME280;4746;35.664;139.738;2024-03-07T05:22:41;100043.59;;;34.37;13.24
9415;BME280;4746;35.664;139.738;2024-03-07T05:25:18;100026.31;;;34.69;13.07
9415;BME280;4746;35.664;139.738;2024-03-07T05:27:49;100013.63;;;34.99;12.67
9415;BME280;4746;35.664;139.738;2024-03-07T05:30:17;99989.69;;;35.61;12.54
9415;BME280;4746;35.664;139.738;2024-03-07T05:32:45;99983.44;;;35.87;12.42
9415;BME280;4746;35.664;139.738;2024-03-07T05:35:14;99968.16;;;36.14;12.00
9415;BME280;4746;35.664;139.738;2024-03-07T05:37:42;99954.63;;;36.33;11.80
9415;BME280;4746;35.664;139.738;2024-03-07T05:40:14;99959.78;;;36.60;11.40
9415;BME280;4746;35.664;139.738;2024-03-07T05:42:41;99976.03;;;37.00;10.99
9415;BME280;4746;35.664;139.738;2024-03-07T05:45:09;99997.38;;;37.25;11.20
9415;BME280;4746;35.664;139.738;2024-03-07T05:47:37;100007.63;;;37.53;11.06
9415;BME280;4746;35.664;139.738;2024-03-07T05:50:05;100028.06;;;37.70;11.08
9415;BME280;4746;35.664;139.738;2024-03-07T05:52:34;100029.66;;;37.32;10.50
9415;BME280;4746;35.664;139.738;2024-03-07T05:55:02;100000.13;;;37.08;11.04
9415;BME280;4746;35.664;139.738;2024-03-07T05:57:30;100010.13;;;36.47;11.04
9415;BME280;4746;35.664;139.738;2024-03-07T05:59:57;100000.28;;;36.22;11.05
9415;BME280;4746;35.664;139.738;2024-03-07T06:02:25;100004.72;;;35.97;10.94
9415;BME280;4746;35.664;139.738;2024-03-07T06:04:54;99986.25;;;34.97;11.68
9415;BME280;4746;35.664;139.738;2024-03-07T06:07:21;99995.31;;;34.13;12.28
9415;BME280;4746;35.664;139.738;2024-03-07T06:09:49;99986.94;;;35.09;11.72
9415;BME280;4746;35.664;139.738;2024-03-07T06:12:17;99987.91;;;36.21;11.20
9415;BME280;4746;35.664;139.738;2024-03-07T06:14:44;99983.53;;;36.63;11.43
9415;BME280;4746;35.664;139.738;2024-03-07T06:17:12;99988.84;;;36.38;11.06
9415;BME280;4746;35.664;139.738;2024-03-07T06:19:39;99979.09;;;36.29;10.77
9415;BME280;4746;35.664;139.738;2024-03-07T06:22:07;99976.97;;;36.32;11.45
9415;BME280;4746;35.664;139.738;2024-03-07T06:24:38;99973.91;;;36.45;11.27
9415;BME280;4746;35.664;139.738;2024-03-07T06:27:07;99967.06;;;36.00;11.25
9415;BME280;4746;35.664;139.738;2024-03-07T06:29:43;99966.00;;;35.93;11.50
9415;BME280;4746;35.664;139.738;2024-03-07T06:32:10;99973.91;;;35.50;11.45
9415;BME280;4746;35.664;139.738;2024-03-07T06:34:38;99989.78;;;34.62;12.01
9415;BME280;4746;35.664;139.738;2024-03-07T06:37:06;99996.44;;;34.10;12.30
9415;BME280;4746;35.664;139.738;2024-03-07T06:39:35;99998.47;;;33.31;12.45
9415;BME280;4746;35.664;139.738;2024-03-07T06:42:03;99989.72;;;31.90;12.89
9415;BME280;4746;35.664;139.738;2024-03-07T06:44:30;99994.66;;;30.66;13.46
9415;BME280;4746;35.664;139.738;2024-03-07T06:46:58;99993.66;;;29.30;14.43
9415;BME280;4746;35.664;139.738;2024-03-07T06:49:25;99993.63;;;27.95;15.60
9415;BME280;4746;35.664;139.738;2024-03-07T06:51:56;99985.50;;;26.65;16.47
9415;BME280;4746;35.664;139.738;2024-03-07T06:54:23;99985.84;;;25.43;17.35
9415;BME280;4746;35.664;139.738;2024-03-07T06:56:51;100004.56;;;24.59;18.20
9415;BME280;4746;35.664;139.738;2024-03-07T06:59:19;100019.47;;;24.25;18.71
9415;BME280;4746;35.664;139.738;2024-03-07T07:01:46;100015.91;;;24.26;19.06
9415;BME280;4746;35.664;139.738;2024-03-07T07:04:14;100022.63;;;23.97;18.78
9415;BME280;4746;35.664;139.738;2024-03-07T07:06:42;100026.53;;;23.18;19.74
9415;BME280;4746;35.664;139.738;2024-03-07T07:09:10;100020.53;;;22.60;19.93
9415;BME280;4746;35.664;139.738;2024-03-07T07:11:37;100027.88;;;22.12;20.56
9415;BME280;4746;35.664;139.738;2024-03-07T07:14:05;100023.19;;;21.79;20.97
9415;BME280;4746;35.664;139.738;2024-03-07T07:16:33;100029.44;;;21.32;21.30
9415;BME280;4746;35.664;139.738;2024-03-07T07:19:02;100030.09;;;20.93;21.43
9415;BME280;4746;35.664;139.738;2024-03-07T07:21:30;100042.06;;;20.51;21.82
9415;BME280;4746;35.664;139.738;2024-03-07T07:23:57;100033.19;;;20.08;22.68
9415;BME280;4746;35.664;139.738;2024-03-07T07:26:25;100055.38;;;19.66;22.77
9415;BME280;4746;35.664;139.738;2024-03-07T07:28:52;100055.00;;;19.25;23.35
9415;BME280;4746;35.664;139.738;2024-03-07T07:31:21;100050.59;;;18.98;23.60
9415;BME280;4746;35.664;139.738;2024-03-07T07:33:48;100044.59;;;18.68;24.26
9415;BME280;4746;35.664;139.738;2024-03-07T07:36:16;100047.84;;;18.44;24.55
9415;BME280;4746;35.664;139.738;2024-03-07T07:38:44;100047.50;;;18.25;24.83
9415;BME280;4746;35.664;139.738;2024-03-07T07:41:12;100040.28;;;18.03;25.07
9415;BME280;4746;35.664;139.738;2024-03-07T07:43:42;100028.72;;;17.83;25.42
9415;BME280;4746;35.664;139.738;2024-03-07T07:46:10;100031.84;;;17.60;25.61
9415;BME280;4746;35.664;139.738;2024-03-07T07:48:38;100026.31;;;17.41;26.19
9415;BME280;4746;35.664;139.738;2024-03-07T07:51:05;100023.31;;;17.19;26.04
9415;BME280;4746;35.664;139.738;2024-03-07T07:53:34;100036.69;;;17.01;26.45
9415;BME280;4746;35.664;139.738;2024-03-07T07:56:02;100029.22;;;16.86;27.06
9415;BME280;4746;35.664;139.738;2024-03-07T07:58:29;100031.31;;;16.71;27.19
9415;BME280;4746;35.664;139.738;2024-03-07T08:00:57;100031.56;;;16.59;27.36
9415;BME280;4746;35.664;139.738;2024-03-07T08:03:27;100047.31;;;16.47;27.52
9415;BME280;4746;35.664;139.738;2024-03-07T08:05:54;100062.16;;;16.36;27.63
9415;BME280;4746;35.664;139.738;2024-03-07T08:08:22;100057.19;;;16.24;28.05
9415;BME280;4746;35.664;139.738;2024-03-07T08:10:50;100046.22;;;16.12;28.25
9415;BME280;4746;35.664;139.738;2024-03-07T08:13:17;100060.19;;;16.02;28.07
9415;BME280;4746;35.664;139.738;2024-03-07T08:15:45;100075.75;;;15.98;28.41
9415;BME280;4746;35.664;139.738;2024-03-07T08:18:13;100077.50;;;15.96;28.82
9415;BME280;4746;35.664;139.738;2024-03-07T08:20:40;100079.41;;;15.86;28.75
9415;BME280;4746;35.664;139.738;2024-03-07T08:23:10;100091.53;;;15.83;28.48
9415;BME280;4746;35.664;139.738;2024-03-07T08:25:37;100102.94;;;15.70;28.83
9415;BME280;4746;35.664;139.738;2024-03-07T08:28:07;100107.34;;;15.62;29.16
9415;BME280;4746;35.664;139.738;2024-03-07T08:30:35;100097.09;;;15.56;29.42
9415;BME280;4746;35.664;139.738;2024-03-07T08:33:03;100109.22;;;15.54;29.52
9415;BME280;4746;35.664;139.738;2024-03-07T08:35:32;100107.50;;;15.51;29.72
9415;BME280;4746;35.664;139.738;2024-03-07T08:37:59;100112.78;;;15.44;29.53
9415;BME280;4746;35.664;139.738;2024-03-07T08:40:29;100124.00;;;15.41;29.56
9415;BME280;4746;35.664;139.738;2024-03-07T08:43:02;100143.03;;;15.36;29.86
9415;BME280;4746;35.664;139.738;2024-03-07T08:45:34;100132.75;;;15.31;29.65
9415;BME280;4746;35.664;139.738;2024-03-07T08:48:01;100147.44;;;15.27;29.56
9415;BME280;4746;35.664;139.738;2024-03-07T08:50:34;100143.19;;;15.21;29.86
9415;BME280;4746;35.664;139.738;2024-03-07T08:53:04;100137.22;;;15.16;29.65
9415;BME280;4746;35.664;139.738;2024-03-07T08:55:32;100150.22;;;15.09;29.84
9415;BME280;4746;35.664;139.738;2024-03-07T08:57:59;100151.13;;;15.03;30.23
9415;BME280;4746;35.664;139.738;2024-03-07T09:00:27;100162.41;;;14.95;30.42
9415;BME280;4746;35.664;139.738;2024-03-07T09:02:57;100163.28;;;14.94;30.60
9415;BME280;4746;35.664;139.738;2024-03-07T09:05:25;100165.91;;;14.91;30.66
9415;BME280;4746;35.664;139.738;2024-03-07T09:07:55;100177.09;;;14.91;30.61
9415;BME280;4746;35.664;139.738;2024-03-07T09:10:23;100182.25;;;14.91;30.99
9415;BME280;4746;35.664;139.738;2024-03-07T09:12:56;100190.06;;;14.87;30.96
9415;BME280;4746;35.664;139.738;2024-03-07T09:15:24;100185.78;;;14.81;30.60
9415;BME280;4746;35.664;139.738;2024-03-07T09:17:52;100186.69;;;14.79;31.37
9415;BME280;4746;35.664;139.738;2024-03-07T09:20:20;100184.19;;;14.71;31.16
9415;BME280;4746;35.664;139.738;2024-03-07T09:22:48;100196.28;;;14.66;31.53
9415;BME280;4746;35.664;139.738;2024-03-07T09:25:17;100195.44;;;14.61;31.57
9415;BME280;4746;35.664;139.738;2024-03-07T09:27:48;100186.88;;;14.58;31.65
9415;BME280;4746;35.664;139.738;2024-03-07T09:30:16;100187.75;;;14.58;32.09
9415;BME280;4746;35.664;139.738;2024-03-07T09:32:51;100191.19;;;14.57;31.99
9415;BME280;4746;35.664;139.738;2024-03-07T09:35:22;100202.34;;;14.58;32.14
9415;BME280;4746;35.664;139.738;2024-03-07T09:37:49;100204.06;;;14.60;32.21
9415;BME280;4746;35.664;139.738;2024-03-07T09:40:17;100218.72;;;14.57;32.02
9415;BME280;4746;35.664;139.738;2024-03-07T09:42:48;100234.19;;;14.56;31.98
9415;BME280;4746;35.664;139.738;2024-03-07T09:45:20;100210.16;;;14.51;32.19
9415;BME280;4746;35.664;139.738;2024-03-07T09:47:50;100215.38;;;14.48;32.16
9415;BME280;4746;35.664;139.738;2024-03-07T09:50:20;100225.72;;;14.42;32.38
9415;BME280;4746;35.664;139.738;2024-03-07T09:52:53;100234.31;;;14.38;32.46
9415;BME280;4746;35.664;139.738;2024-03-07T09:55:21;100218.88;;;14.38;32.46
9415;BME280;4746;35.664;139.738;2024-03-07T09:57:51;100228.34;;;14.37;32.50
9415;BME280;4746;35.664;139.738;2024-03-07T10:00:21;100232.63;;;14.38;32.43
9415;BME280;4746;35.664;139.738;2024-03-07T10:05:32;100241.25;;;14.36;32.15
9415;BME280;4746;35.664;139.738;2024-03-07T10:08:01;100242.97;;;14.37;32.38
9415;BME280;4746;35.664;139.738;2024-03-07T10:10:28;100221.47;;;14.36;32.36
9415;BME280;4746;35.664;139.738;2024-03-07T10:12:57;100204.28;;;14.37;32.40
9415;BME280;4746;35.664;139.738;2024-03-07T10:15:32;100206.81;;;14.40;32.25
9415;BME280;4746;35.664;139.738;2024-03-07T10:18:01;100195.69;;;14.36;32.38
9415;BME280;4746;35.664;139.738;2024-03-07T10:20:29;100197.44;;;14.34;32.65
9415;BME280;4746;35.664;139.738;2024-03-07T10:22:57;100201.78;;;14.28;32.40
9415;BME280;4746;35.664;139.738;2024-03-07T10:25:24;100199.22;;;14.23;32.44
9415;BME280;4746;35.664;139.738;2024-03-07T10:27:55;100206.16;;;14.20;32.62
9415;BME280;4746;35.664;139.738;2024-03-07T10:30:24;100207.91;;;14.13;32.25
9415;BME280;4746;35.664;139.738;2024-03-07T10:32:59;100217.38;;;14.10;32.81
9415;BME280;4746;35.664;139.738;2024-03-07T10:35:27;100213.94;;;14.05;33.04
9415;BME280;4746;35.664;139.738;2024-03-07T10:37:56;100222.53;;;14.07;32.92
9415;BME280;4746;35.664;139.738;2024-03-07T10:40:28;100219.09;;;14.08;33.13
9415;BME280;4746;35.664;139.738;2024-03-07T10:43:00;100214.78;;;14.10;32.93
9415;BME280;4746;35.664;139.738;2024-03-07T10:45:30;100202.78;;;14.06;32.31
9415;BME280;4746;35.664;139.738;2024-03-07T10:48:08;100219.94;;;14.05;32.76
9415;BME280;4746;35.664;139.738;2024-03-07T10:53:51;100221.72;;;14.02;33.13
9415;BME280;4746;35.664;139.738;2024-03-07T10:59:34;100200.25;;;14.00;32.76
9415;BME280;4746;35.664;139.738;2024-03-07T11:02:37;100205.38;;;14.04;33.12
9415;BME280;4746;35.664;139.738;2024-03-07T11:05:13;100196.81;;;13.98;32.96
9415;BME280;4746;35.664;139.738;2024-03-07T11:07:45;100196.00;;;13.96;33.26
9415;BME280;4746;35.664;139.738;2024-03-07T11:10:18;100191.69;;;13.95;33.14
9415;BME280;4746;35.664;139.738;2024-03-07T11:12:48;100205.44;;;13.94;33.48
9415;BME280;4746;35.664;139.738;2024-03-07T11:15:19;100192.56;;;13.94;33.53
9415;BME280;4746;35.664;139.738;2024-03-07T11:17:49;100183.09;;;13.97;33.52
9415;BME280;4746;35.664;139.738;2024-03-07T11:20:26;100177.09;;;13.98;33.49
9415;BME280;4746;35.664;139.738;2024-03-07T11:22:54;100181.41;;;13.95;34.09
9415;BME280;4746;35.664;139.738;2024-03-07T11:25:23;100174.50;;;13.98;33.58
9415;BME280;4746;35.664;139.738;2024-03-07T11:27:59;100171.88;;;14.06;33.71
9415;BME280;4746;35.664;139.738;2024-03-07T11:30:28;100162.41;;;14.08;33.90
9415;BME280;4746;35.664;139.738;2024-03-07T11:32:56;100158.09;;;14.11;33.67
9415;BME280;4746;35.664;139.738;2024-03-07T11:35:50;100145.16;;;14.19;33.45
9415;BME280;4746;35.664;139.738;2024-03-07T11:38:20;100146.91;;;14.17;33.72
9415;BME280;4746;35.664;139.738;2024-03-07T11:40:53;100156.38;;;14.16;33.81
9415;BME280;4746;35.664;139.738;2024-03-07T11:43:27;100147.75;;;14.19;33.63
9415;BME280;4746;35.664;139.738;2024-03-07T11:45:55;100152.06;;;14.15;33.56
9415;BME280;4746;35.664;139.738;2024-03-07T11:48:25;100158.06;;;14.16;33.42
9415;BME280;4746;35.664;139.738;2024-03-07T11:50:54;100154.69;;;14.09;33.45
9415;BME280;4746;35.664;139.738;2024-03-07T11:53:24;100160.69;;;14.07;33.05
9415;BME280;4746;35.664;139.738;2024-03-07T11:55:52;100153.84;;;14.06;33.54
9415;BME280;4746;35.664;139.738;2024-03-07T11:58:22;100158.97;;;14.07;33.47
9415;BME280;4746;35.664;139.738;2024-03-07T12:00:53;100169.25;;;14.09;33.51
9415;BME280;4746;35.664;139.738;2024-03-07T12:03:25;100171.00;;;14.07;33.29
9415;BME280;4746;35.664;139.738;2024-03-07T12:05:54;100166.75;;;14.01;33.47
9415;BME280;4746;35.664;139.738;2024-03-07T12:08:23;100157.34;;;13.96;33.99
9415;BME280;4746;35.664;139.738;2024-03-07T12:10:51;100156.47;;;13.95;34.02
9415;BME280;4746;35.664;139.738;2024-03-07T12:13:23;100153.94;;;13.94;33.89
9415;BME280;4746;35.664;139.738;2024-03-07T12:15:52;100166.81;;;13.91;34.12
9415;BME280;4746;35.664;139.738;2024-03-07T12:18:23;100179.69;;;13.91;34.07
9415;BME280;4746;35.664;139.738;2024-03-07T12:20:52;100174.53;;;13.91;34.11
9415;BME280;4746;35.664;139.738;2024-03-07T12:23:25;100157.31;;;13.99;33.94
9415;BME280;4746;35.664;139.738;2024-03-07T12:26:04;100165.84;;;14.10;33.84
9415;BME280;4746;35.664;139.738;2024-03-07T12:28:33;100174.44;;;14.06;33.84
9415;BME280;4746;35.664;139.738;2024-03-07T12:31:02;100177.91;;;14.03;34.00
9415;BME280;4746;35.664;139.738;2024-03-07T12:33:31;100165.84;;;14.05;34.04
9415;BME280;4746;35.664;139.738;2024-03-07T12:36:06;100158.94;;;14.09;33.67
9415;BME280;4746;35.664;139.738;2024-03-07T12:38:38;100159.84;;;14.08;33.52
9415;BME280;4746;35.664;139.738;2024-03-07T12:41:12;100159.84;;;14.09;33.60
9415;BME280;4746;35.664;139.738;2024-03-07T12:43:46;100150.38;;;14.07;33.91
9415;BME280;4746;35.664;139.738;2024-03-07T12:46:14;100143.53;;;14.06;34.01
9415;BME280;4746;35.664;139.738;2024-03-07T12:48:43;100145.22;;;14.05;33.58
9415;BME280;4746;35.664;139.738;2024-03-07T12:51:15;100144.41;;;14.03;33.92
9415;BME280;4746;35.664;139.738;2024-03-07T12:53:46;100135.81;;;14.03;33.69
9415;BME280;4746;35.664;139.738;2024-03-07T12:56:14;100134.94;;;14.04;33.99
9415;BME280;4746;35.664;139.738;2024-03-07T12:58:47;100126.34;;;14.05;33.61
9415;BME280;4746;35.664;139.738;2024-03-07T13:01:17;100132.38;;;14.04;33.71
9415;BME280;4746;35.664;139.738;2024-03-07T13:03:47;100129.78;;;14.04;33.75
9415;BME280;4746;35.664;139.738;2024-03-07T13:06:17;100125.50;;;14.03;33.56
9415;BME280;4746;35.664;139.738;2024-03-07T13:08:52;100122.09;;;14.01;33.78
9415;BME280;4746;35.664;139.738;2024-03-07T13:11:20;100121.25;;;13.99;33.65